createdAt,value
2023-12-17T00:00:33.539Z,611.00
2023-12-17T00:01:33.526Z,611.00
2023-12-17T00:02:33.589Z,612.00
2023-12-17T00:03:33.687Z,606.00
2023-12-17T00:04:33.699Z,608.00
2023-12-17T00:05:33.726Z,605.00
2023-12-17T00:06:33.756Z,609.00
2023-12-17T00:07:33.704Z,606.00
2023-12-17T00:08:33.753Z,609.00
2023-12-17T00:09:33.734Z,606.00
2023-12-17T00:10:33.772Z,609.00
2023-12-17T00:11:33.826Z,608.00
2023-12-17T00:12:33.837Z,608.00
2023-12-17T00:13:33.840Z,608.00
2023-12-17T00:14:33.882Z,604.00
2023-12-17T00:15:33.943Z,605.00
2023-12-17T00:16:33.954Z,606.00
2023-12-17T00:17:33.965Z,603.00
2023-12-17T00:18:34.240Z,607.00
2023-12-17T00:19:34.151Z,601.00
2023-12-17T00:20:34.024Z,608.00
2023-12-17T00:21:34.059Z,606.00
2023-12-17T00:22:35.028Z,609.00
2023-12-17T00:23:34.065Z,604.00
2023-12-17T00:24:34.082Z,606.00
2023-12-17T00:25:34.083Z,604.00
2023-12-17T00:26:34.138Z,605.00
2023-12-17T00:27:34.096Z,607.00
2023-12-17T00:28:34.154Z,610.00
2023-12-17T00:29:34.156Z,610.00
2023-12-17T00:30:34.281Z,611.00
2023-12-17T00:31:34.193Z,611.00
2023-12-17T00:32:34.287Z,609.00
2023-12-17T00:33:34.449Z,608.00
2023-12-17T00:34:34.412Z,605.00
2023-12-17T00:35:34.270Z,605.00
2023-12-17T00:36:34.275Z,604.00
2023-12-17T00:37:34.273Z,606.00
2023-12-17T00:38:34.339Z,608.00
2023-12-17T00:39:34.331Z,609.00
2023-12-17T00:40:34.280Z,604.00
2023-12-17T00:41:34.350Z,607.00
2023-12-17T00:42:34.353Z,608.00
2023-12-17T00:43:34.421Z,607.00
2023-12-17T00:44:34.410Z,607.00
2023-12-17T00:45:34.430Z,606.00
2023-12-17T00:46:34.412Z,607.00
2023-12-17T00:47:34.464Z,606.00
2023-12-17T00:48:34.721Z,604.00
2023-12-17T00:49:34.584Z,603.00
2023-12-17T00:50:34.531Z,605.00
2023-12-17T00:51:34.529Z,601.00
2023-12-17T00:52:34.525Z,603.00
2023-12-17T00:53:34.595Z,606.00
2023-12-17T00:54:34.594Z,604.00
2023-12-17T00:55:34.600Z,602.00
2023-12-17T00:56:34.597Z,608.00
2023-12-17T00:57:34.680Z,601.00
2023-12-17T00:58:34.641Z,603.00
2023-12-17T00:59:34.696Z,604.00
2023-12-17T01:00:37.843Z,603.00
2023-12-17T01:01:35.750Z,603.00
2023-12-17T01:02:34.734Z,603.00
2023-12-17T01:03:34.835Z,604.00
2023-12-17T01:04:34.650Z,605.00
2023-12-17T01:05:34.761Z,604.00
2023-12-17T01:06:34.743Z,606.00
2023-12-17T01:07:34.695Z,606.00
2023-12-17T01:08:34.649Z,609.00
2023-12-17T01:09:34.687Z,605.00
2023-12-17T01:10:34.704Z,603.00
2023-12-17T01:11:34.746Z,605.00
2023-12-17T01:12:34.715Z,605.00
2023-12-17T01:13:36.859Z,605.00
2023-12-17T01:14:34.762Z,606.00
2023-12-17T01:15:34.951Z,607.00
2023-12-17T01:16:34.807Z,609.00
2023-12-17T01:17:34.972Z,610.00
2023-12-17T01:18:37.020Z,604.00
2023-12-17T01:19:35.076Z,607.00
2023-12-17T01:20:34.960Z,611.00
2023-12-17T01:21:34.978Z,610.00
2023-12-17T01:22:34.947Z,606.00
2023-12-17T01:23:34.986Z,609.00
2023-12-17T01:24:34.995Z,608.00
2023-12-17T01:25:35.000Z,605.00
2023-12-17T01:26:35.006Z,607.00
2023-12-17T01:27:35.013Z,610.00
2023-12-17T01:28:35.030Z,608.00
2023-12-17T01:29:35.029Z,606.00
2023-12-17T01:30:35.197Z,605.00
2023-12-17T01:31:35.084Z,607.00
2023-12-17T01:32:35.134Z,609.00
2023-12-17T01:33:35.314Z,606.00
2023-12-17T01:34:35.296Z,610.00
2023-12-17T01:35:35.147Z,604.00
2023-12-17T01:36:35.150Z,605.00
2023-12-17T01:37:35.194Z,609.00
2023-12-17T01:38:35.209Z,606.00
2023-12-17T01:39:35.193Z,608.00
2023-12-17T01:40:35.250Z,607.00
2023-12-17T01:41:35.298Z,613.00
2023-12-17T01:42:35.285Z,612.00
2023-12-17T01:43:35.265Z,613.00
2023-12-17T01:44:35.384Z,613.00
2023-12-17T01:45:35.312Z,605.00
2023-12-17T01:46:35.306Z,610.00
2023-12-17T01:47:35.489Z,609.00
2023-12-17T01:48:35.485Z,616.00
2023-12-17T01:49:35.472Z,608.00
2023-12-17T01:50:35.372Z,614.00
2023-12-17T01:51:35.437Z,615.00
2023-12-17T01:52:35.456Z,609.00
2023-12-17T01:53:35.447Z,612.00
2023-12-17T01:54:35.453Z,611.00
2023-12-17T01:55:35.477Z,614.00
2023-12-17T01:56:35.483Z,609.00
2023-12-17T01:57:35.488Z,606.00
2023-12-17T01:58:35.522Z,611.00
2023-12-17T01:59:35.527Z,608.00
2023-12-17T02:00:35.558Z,611.00
2023-12-17T02:01:35.618Z,611.00
2023-12-17T02:02:35.665Z,614.00
2023-12-17T02:03:35.785Z,609.00
2023-12-17T02:04:35.667Z,610.00
2023-12-17T02:05:35.792Z,613.00
2023-12-17T02:06:35.893Z,611.00
2023-12-17T02:07:35.810Z,609.00
2023-12-17T02:08:35.786Z,611.00
2023-12-17T02:09:35.922Z,611.00
2023-12-17T02:10:35.982Z,614.00
2023-12-17T02:11:36.031Z,616.00
2023-12-17T02:12:36.039Z,613.00
2023-12-17T02:13:36.105Z,614.00
2023-12-17T02:14:36.157Z,612.00
2023-12-17T02:15:36.228Z,611.00
2023-12-17T02:16:36.253Z,614.00
2023-12-17T02:17:36.357Z,610.00
2023-12-17T02:18:36.481Z,610.00
2023-12-17T02:19:36.484Z,610.00
2023-12-17T02:20:36.404Z,606.00
2023-12-17T02:21:36.487Z,610.00
2023-12-17T02:22:36.476Z,608.00
2023-12-17T02:23:36.562Z,612.00
2023-12-17T02:24:36.608Z,608.00
2023-12-17T02:25:36.656Z,606.00
2023-12-17T02:26:36.713Z,608.00
2023-12-17T02:27:36.762Z,612.00
2023-12-17T02:28:36.831Z,611.00
2023-12-17T02:29:36.855Z,609.00
2023-12-17T02:30:37.047Z,606.00
2023-12-17T02:31:37.001Z,606.00
2023-12-17T02:32:37.090Z,609.00
2023-12-17T02:33:37.186Z,606.00
2023-12-17T02:34:37.313Z,607.00
2023-12-17T02:35:37.335Z,608.00
2023-12-17T02:36:38.329Z,606.00
2023-12-17T02:37:37.595Z,605.00
2023-12-17T02:38:37.451Z,606.00
2023-12-17T02:39:37.520Z,608.00
2023-12-17T02:40:37.649Z,609.00
2023-12-17T02:41:37.681Z,608.00
2023-12-17T02:42:37.794Z,609.00
2023-12-17T02:43:37.885Z,604.00
2023-12-17T02:44:37.909Z,609.00
2023-12-17T02:45:37.975Z,607.00
2023-12-17T02:46:38.020Z,609.00
2023-12-17T02:47:38.341Z,610.00
2023-12-17T02:48:38.353Z,610.00
2023-12-17T02:49:38.292Z,610.00
2023-12-17T02:50:38.315Z,611.00
2023-12-17T02:51:38.361Z,608.00
2023-12-17T02:52:38.430Z,611.00
2023-12-17T02:53:38.541Z,609.00
2023-12-17T02:54:38.653Z,609.00
2023-12-17T02:55:38.583Z,606.00
2023-12-17T02:56:38.679Z,607.00
2023-12-17T02:57:39.064Z,611.00
2023-12-17T02:58:38.841Z,608.00
2023-12-17T02:59:38.874Z,609.00
2023-12-17T03:00:39.023Z,610.00
2023-12-17T03:01:39.060Z,610.00
2023-12-17T03:02:39.104Z,610.00
2023-12-17T03:03:39.262Z,607.00
2023-12-17T03:04:39.223Z,609.00
2023-12-17T03:05:39.381Z,607.00
2023-12-17T03:06:39.380Z,611.00
2023-12-17T03:07:39.629Z,608.00
2023-12-17T03:08:39.566Z,607.00
2023-12-17T03:09:39.657Z,608.00
2023-12-17T03:10:39.679Z,607.00
2023-12-17T03:11:39.763Z,607.00
2023-12-17T03:12:39.786Z,606.00
2023-12-17T03:13:39.847Z,604.00
2023-12-17T03:14:39.944Z,609.00
2023-12-17T03:15:40.007Z,611.00
2023-12-17T03:16:40.060Z,607.00
2023-12-17T03:17:40.660Z,608.00
2023-12-17T03:18:40.266Z,609.00
2023-12-17T03:19:40.245Z,610.00
2023-12-17T03:20:40.325Z,611.00
2023-12-17T03:21:40.364Z,608.00
2023-12-17T03:22:40.402Z,611.00
2023-12-17T03:23:40.482Z,609.00
2023-12-17T03:24:40.523Z,613.00
2023-12-17T03:25:40.710Z,609.00
2023-12-17T03:26:40.701Z,609.00
2023-12-17T03:27:40.994Z,608.00
2023-12-17T03:28:40.838Z,608.00
2023-12-17T03:29:40.922Z,606.00
2023-12-17T03:30:41.088Z,606.00
2023-12-17T03:31:41.009Z,610.00
2023-12-17T03:32:41.126Z,611.00
2023-12-17T03:33:41.247Z,607.00
2023-12-17T03:34:41.251Z,607.00
2023-12-17T03:35:41.277Z,608.00
2023-12-17T03:36:41.302Z,602.00
2023-12-17T03:37:41.619Z,605.00
2023-12-17T03:38:41.476Z,611.00
2023-12-17T03:39:41.502Z,611.00
2023-12-17T03:40:41.568Z,610.00
2023-12-17T03:41:41.647Z,608.00
2023-12-17T03:42:41.677Z,609.00
2023-12-17T03:43:41.742Z,613.00
2023-12-17T03:44:41.864Z,612.00
2023-12-17T03:45:41.897Z,612.00
2023-12-17T03:46:41.977Z,608.00
2023-12-17T03:47:42.257Z,609.00
2023-12-17T03:48:42.320Z,610.00
2023-12-17T03:49:42.154Z,608.00
2023-12-17T03:50:42.209Z,609.00
2023-12-17T03:51:42.234Z,611.00
2023-12-17T03:52:42.362Z,608.00
2023-12-17T03:53:42.446Z,611.00
2023-12-17T03:54:42.484Z,607.00
2023-12-17T03:55:42.544Z,608.00
2023-12-17T03:56:42.633Z,607.00
2023-12-17T03:57:42.870Z,607.00
2023-12-17T03:58:42.756Z,608.00
2023-12-17T03:59:42.821Z,612.00
2023-12-17T04:00:42.900Z,609.00
2023-12-17T04:01:42.933Z,609.00
2023-12-17T04:02:43.071Z,612.00
2023-12-17T04:03:43.073Z,607.00
2023-12-17T04:04:43.139Z,610.00
2023-12-17T04:05:43.153Z,611.00
2023-12-17T04:06:43.241Z,610.00
2023-12-17T04:07:43.691Z,609.00
2023-12-17T04:08:43.385Z,609.00
2023-12-17T04:09:43.386Z,608.00
2023-12-17T04:10:43.463Z,609.00
2023-12-17T04:11:43.551Z,608.00
2023-12-17T04:12:43.596Z,612.00
2023-12-17T04:13:43.626Z,608.00
2023-12-17T04:14:43.695Z,607.00
2023-12-17T04:15:43.746Z,609.00
2023-12-17T04:16:43.800Z,608.00
2023-12-17T04:17:44.214Z,609.00
2023-12-17T04:18:44.062Z,605.00
2023-12-17T04:19:44.113Z,609.00
2023-12-17T04:20:44.038Z,605.00
2023-12-17T04:21:44.129Z,606.00
2023-12-17T04:22:44.151Z,610.00
2023-12-17T04:23:44.197Z,605.00
2023-12-17T04:24:44.265Z,607.00
2023-12-17T04:25:44.306Z,600.00
2023-12-17T04:26:44.417Z,605.00
2023-12-17T04:27:44.445Z,607.00
2023-12-17T04:28:44.477Z,607.00
2023-12-17T04:29:44.534Z,604.00
2023-12-17T04:30:51.921Z,600.00
2023-12-17T04:31:59.091Z,600.00
2023-12-17T04:32:59.193Z,600.00
2023-12-17T04:33:59.198Z,600.00
2023-12-17T04:34:59.112Z,600.00
2023-12-17T04:35:59.150Z,600.00
2023-12-17T04:36:59.125Z,600.00
2023-12-17T04:37:59.153Z,602.00
2023-12-17T04:38:59.139Z,604.00
2023-12-17T04:39:59.137Z,599.00
2023-12-17T04:40:59.111Z,603.00
2023-12-17T04:41:59.141Z,602.00
2023-12-17T04:42:59.155Z,602.00
2023-12-17T04:43:59.153Z,604.00
2023-12-17T04:44:59.173Z,604.00
2023-12-17T04:45:59.256Z,600.00
2023-12-17T04:46:59.129Z,604.00
2023-12-17T04:47:59.220Z,608.00
2023-12-17T04:48:59.330Z,609.00
2023-12-17T04:49:59.172Z,606.00
2023-12-17T04:50:59.278Z,608.00
2023-12-17T04:51:59.135Z,611.00
2023-12-17T04:52:59.227Z,611.00
2023-12-17T04:53:59.232Z,611.00
2023-12-17T04:54:59.176Z,610.00
2023-12-17T04:55:59.233Z,607.00
2023-12-17T04:56:59.212Z,607.00
2023-12-17T04:57:59.173Z,606.00
2023-12-17T04:58:59.143Z,607.00
2023-12-17T04:59:59.246Z,605.00
2023-12-17T05:00:59.203Z,607.00
2023-12-17T05:01:59.239Z,609.00
2023-12-17T05:02:59.387Z,610.00
2023-12-17T05:03:59.490Z,610.00
2023-12-17T05:04:59.432Z,607.00
2023-12-17T05:05:59.473Z,605.00
2023-12-17T05:06:59.510Z,606.00
2023-12-17T05:07:59.516Z,608.00
2023-12-17T05:08:59.581Z,609.00
2023-12-17T05:09:59.639Z,606.00
2023-12-17T05:10:59.689Z,609.00
2023-12-17T05:11:59.833Z,606.00
2023-12-17T05:12:59.803Z,606.00
2023-12-17T05:13:59.801Z,606.00
2023-12-17T05:14:59.876Z,608.00
2023-12-17T05:15:59.930Z,603.00
2023-12-17T05:16:59.983Z,607.00
2023-12-17T05:18:00.248Z,608.00
2023-12-17T05:19:00.187Z,605.00
2023-12-17T05:20:00.145Z,607.00
2023-12-17T05:21:00.181Z,605.00
2023-12-17T05:22:00.256Z,607.00
2023-12-17T05:23:00.268Z,609.00
2023-12-17T05:24:00.335Z,609.00
2023-12-17T05:25:00.352Z,610.00
2023-12-17T05:26:00.366Z,605.00
2023-12-17T05:27:00.432Z,610.00
2023-12-17T05:28:00.507Z,607.00
2023-12-17T05:29:00.482Z,609.00
2023-12-17T05:30:00.574Z,611.00
2023-12-17T05:31:00.742Z,612.00
2023-12-17T05:32:00.614Z,610.00
2023-12-17T05:33:00.749Z,606.00
2023-12-17T05:34:00.786Z,611.00
2023-12-17T05:35:00.721Z,608.00
2023-12-17T05:36:00.870Z,607.00
2023-12-17T05:37:00.851Z,608.00
2023-12-17T05:38:00.860Z,607.00
2023-12-17T05:39:00.917Z,608.00
2023-12-17T05:40:00.972Z,607.00
2023-12-17T05:41:01.016Z,607.00
2023-12-17T05:42:01.126Z,605.00
2023-12-17T05:43:01.085Z,604.00
2023-12-17T05:44:01.139Z,605.00
2023-12-17T05:45:01.224Z,605.00
2023-12-17T05:46:06.220Z,604.00
2023-12-17T05:47:02.239Z,604.00
2023-12-17T05:48:01.383Z,605.00
2023-12-17T05:49:01.388Z,605.00
2023-12-17T05:50:01.488Z,604.00
2023-12-17T05:51:01.334Z,601.00
2023-12-17T05:52:01.262Z,601.00
2023-12-17T05:53:01.261Z,603.00
2023-12-17T05:54:01.298Z,603.00
2023-12-17T05:55:01.269Z,608.00
2023-12-17T05:56:01.289Z,605.00
2023-12-17T05:57:01.320Z,603.00
2023-12-17T05:58:01.250Z,606.00
2023-12-17T05:59:01.257Z,603.00
2023-12-17T06:00:01.301Z,605.00
2023-12-17T06:01:01.378Z,607.00
2023-12-17T06:02:01.313Z,605.00
2023-12-17T06:03:01.354Z,608.00
2023-12-17T06:04:01.502Z,602.00
2023-12-17T06:05:01.444Z,604.00
2023-12-17T06:06:01.618Z,602.00
2023-12-17T06:07:01.514Z,604.00
2023-12-17T06:08:01.515Z,603.00
2023-12-17T06:09:01.697Z,605.00
2023-12-17T06:10:01.623Z,607.00
2023-12-17T06:11:01.648Z,606.00
2023-12-17T06:12:01.732Z,607.00
2023-12-17T06:13:01.749Z,603.00
2023-12-17T06:14:01.810Z,605.00
2023-12-17T06:15:01.837Z,603.00
2023-12-17T06:16:01.833Z,604.00
2023-12-17T06:17:01.881Z,605.00
2023-12-17T06:18:02.151Z,601.00
2023-12-17T06:19:02.106Z,602.00
2023-12-17T06:20:01.993Z,604.00
2023-12-17T06:21:02.098Z,608.00
2023-12-17T06:22:02.077Z,604.00
2023-12-17T06:23:02.083Z,606.00
2023-12-17T06:24:02.138Z,604.00
2023-12-17T06:25:02.133Z,604.00
2023-12-17T06:26:02.202Z,602.00
2023-12-17T06:27:02.243Z,604.00
2023-12-17T06:28:02.218Z,607.00
2023-12-17T06:29:02.277Z,603.00
2023-12-17T06:30:02.310Z,608.00
2023-12-17T06:31:02.475Z,604.00
2023-12-17T06:32:03.768Z,603.00
2023-12-17T06:33:02.643Z,608.00
2023-12-17T06:34:02.611Z,602.00
2023-12-17T06:35:02.576Z,605.00
2023-12-17T06:36:02.621Z,601.00
2023-12-17T06:37:02.725Z,609.00
2023-12-17T06:38:02.697Z,604.00
2023-12-17T06:39:02.729Z,606.00
2023-12-17T06:40:04.446Z,602.00
2023-12-17T06:41:02.744Z,602.00
2023-12-17T06:42:02.750Z,605.00
2023-12-17T06:43:02.744Z,604.00
2023-12-17T06:44:02.738Z,605.00
2023-12-17T06:45:03.027Z,603.00
2023-12-17T06:46:02.758Z,602.00
2023-12-17T06:47:06.518Z,604.00
2023-12-17T06:48:03.917Z,604.00
2023-12-17T06:49:02.899Z,604.00
2023-12-17T06:50:02.910Z,606.00
2023-12-17T06:51:02.838Z,609.00
2023-12-17T06:52:02.790Z,606.00
2023-12-17T06:53:02.725Z,608.00
2023-12-17T06:54:02.807Z,608.00
2023-12-17T06:55:02.762Z,606.00
2023-12-17T06:56:02.804Z,605.00
2023-12-17T06:57:02.895Z,609.00
2023-12-17T06:58:02.752Z,608.00
2023-12-17T06:59:02.836Z,608.00
2023-12-17T07:00:02.940Z,605.00
2023-12-17T07:01:02.902Z,607.00
2023-12-17T07:02:02.798Z,604.00
2023-12-17T07:03:03.009Z,608.00
2023-12-17T07:04:02.906Z,606.00
2023-12-17T07:05:02.978Z,603.00
2023-12-17T07:06:03.024Z,609.00
2023-12-17T07:07:03.018Z,605.00
2023-12-17T07:08:03.008Z,608.00
2023-12-17T07:09:03.332Z,607.00
2023-12-17T07:10:03.095Z,611.00
2023-12-17T07:11:03.155Z,611.00
2023-12-17T07:12:03.196Z,604.00
2023-12-17T07:13:03.245Z,612.00
2023-12-17T07:14:03.280Z,607.00
2023-12-17T07:15:03.322Z,607.00
2023-12-17T07:16:03.372Z,607.00
2023-12-17T07:17:03.407Z,612.00
2023-12-17T07:18:03.515Z,603.00
2023-12-17T07:19:03.583Z,612.00
2023-12-17T07:20:03.590Z,608.00
2023-12-17T07:21:03.645Z,611.00
2023-12-17T07:22:03.542Z,609.00
2023-12-17T07:23:03.651Z,608.00
2023-12-17T07:24:03.657Z,610.00
2023-12-17T07:25:03.649Z,611.00
2023-12-17T07:26:03.664Z,609.00
2023-12-17T07:27:03.690Z,607.00
2023-12-17T07:28:03.801Z,611.00
2023-12-17T07:29:03.836Z,606.00
2023-12-17T07:30:03.997Z,608.00
2023-12-17T07:31:03.836Z,609.00
2023-12-17T07:32:03.883Z,606.00
2023-12-17T07:33:04.075Z,611.00
2023-12-17T07:34:04.034Z,613.00
2023-12-17T07:35:03.947Z,609.00
2023-12-17T07:36:04.079Z,612.00
2023-12-17T07:37:04.012Z,609.00
2023-12-17T07:38:04.014Z,612.00
2023-12-17T07:39:04.112Z,610.00
2023-12-17T07:40:04.093Z,607.00
2023-12-17T07:41:04.167Z,610.00
2023-12-17T07:42:04.182Z,611.00
2023-12-17T07:43:04.169Z,613.00
2023-12-17T07:44:04.203Z,608.00
2023-12-17T07:45:04.356Z,611.00
2023-12-17T07:46:04.290Z,608.00
2023-12-17T07:47:04.300Z,609.00
2023-12-17T07:48:04.434Z,610.00
2023-12-17T07:49:04.499Z,607.00
2023-12-17T07:50:04.328Z,605.00
2023-12-17T07:51:04.450Z,607.00
2023-12-17T07:52:04.372Z,611.00
2023-12-17T07:53:04.456Z,610.00
2023-12-17T07:54:04.505Z,607.00
2023-12-17T07:55:04.480Z,604.00
2023-12-17T07:56:04.496Z,608.00
2023-12-17T07:57:04.744Z,611.00
2023-12-17T07:58:04.511Z,607.00
2023-12-17T07:59:04.519Z,609.00
2023-12-17T08:00:04.583Z,609.00
2023-12-17T08:01:04.649Z,608.00
2023-12-17T08:02:04.653Z,607.00
2023-12-17T08:03:04.726Z,604.00
2023-12-17T08:04:04.755Z,610.00
2023-12-17T08:05:04.743Z,612.00
2023-12-17T08:06:04.861Z,607.00
2023-12-17T08:07:04.882Z,608.00
2023-12-17T08:08:04.720Z,608.00
2023-12-17T08:09:04.755Z,610.00
2023-12-17T08:10:04.750Z,609.00
2023-12-17T08:11:04.803Z,606.00
2023-12-17T08:12:04.907Z,611.00
2023-12-17T08:13:04.791Z,607.00
2023-12-17T08:14:04.897Z,607.00
2023-12-17T08:15:04.884Z,605.00
2023-12-17T08:16:04.832Z,607.00
2023-12-17T08:17:04.872Z,608.00
2023-12-17T08:18:04.940Z,610.00
2023-12-17T08:19:04.946Z,608.00
2023-12-17T08:20:04.936Z,610.00
2023-12-17T08:21:04.976Z,607.00
2023-12-17T08:22:04.965Z,611.00
2023-12-17T08:23:04.978Z,608.00
2023-12-17T08:24:04.952Z,607.00
2023-12-17T08:25:04.896Z,610.00
2023-12-17T08:26:04.975Z,609.00
2023-12-17T08:27:04.982Z,609.00
2023-12-17T08:28:04.971Z,602.00
2023-12-17T08:29:04.973Z,607.00
2023-12-17T08:30:05.109Z,611.00
2023-12-17T08:31:05.002Z,608.00
2023-12-17T08:32:04.990Z,606.00
2023-12-17T08:33:05.093Z,612.00
2023-12-17T08:34:05.131Z,613.00
2023-12-17T08:35:05.026Z,608.00
2023-12-17T08:36:05.058Z,613.00
2023-12-17T08:37:05.052Z,611.00
2023-12-17T08:38:05.052Z,608.00
2023-12-17T08:39:05.105Z,610.00
2023-12-17T08:40:05.060Z,615.00
2023-12-17T08:41:05.060Z,612.00
2023-12-17T08:42:05.115Z,609.00
2023-12-17T08:43:05.194Z,615.00
2023-12-17T08:44:05.115Z,608.00
2023-12-17T08:45:05.129Z,610.00
2023-12-17T08:46:05.207Z,609.00
2023-12-17T08:47:05.215Z,610.00
2023-12-17T08:48:05.320Z,611.00
2023-12-17T08:49:05.406Z,613.00
2023-12-17T08:50:05.372Z,611.00
2023-12-17T08:51:05.406Z,615.00
2023-12-17T08:52:05.366Z,614.00
2023-12-17T08:53:05.450Z,610.00
2023-12-17T08:54:05.540Z,611.00
2023-12-17T08:55:05.625Z,613.00
2023-12-17T08:56:05.643Z,614.00
2023-12-17T08:57:05.873Z,613.00
2023-12-17T08:58:05.793Z,612.00
2023-12-17T08:59:05.877Z,612.00
2023-12-17T09:00:06.101Z,614.00
2023-12-17T09:01:06.043Z,613.00
2023-12-17T09:02:06.123Z,614.00
2023-12-17T09:03:06.301Z,615.00
2023-12-17T09:04:06.316Z,616.00
2023-12-17T09:05:06.372Z,615.00
2023-12-17T09:06:06.410Z,614.00
2023-12-17T09:07:06.398Z,613.00
2023-12-17T09:08:06.576Z,613.00
2023-12-17T09:09:06.561Z,616.00
2023-12-17T09:10:06.606Z,617.00
2023-12-17T09:11:06.727Z,614.00
2023-12-17T09:12:06.819Z,618.00
2023-12-17T09:13:06.844Z,616.00
2023-12-17T09:14:06.874Z,615.00
2023-12-17T09:15:07.040Z,615.00
2023-12-17T09:16:07.062Z,613.00
2023-12-17T09:17:07.051Z,611.00
2023-12-17T09:18:07.248Z,614.00
2023-12-17T09:19:07.331Z,611.00
2023-12-17T09:20:07.356Z,616.00
2023-12-17T09:21:07.433Z,615.00
2023-12-17T09:22:07.386Z,614.00
2023-12-17T09:23:07.393Z,611.00
2023-12-17T09:24:07.479Z,612.00
2023-12-17T09:25:07.512Z,610.00
2023-12-17T09:26:07.541Z,612.00
2023-12-17T09:27:07.706Z,611.00
2023-12-17T09:28:07.624Z,613.00
2023-12-17T09:29:07.696Z,608.00
2023-12-17T09:30:07.738Z,609.00
2023-12-17T09:31:07.835Z,606.00
2023-12-17T09:32:07.801Z,606.00
2023-12-17T09:33:08.033Z,609.00
2023-12-17T09:34:08.109Z,605.00
2023-12-17T09:35:07.941Z,608.00
2023-12-17T09:36:08.034Z,609.00
2023-12-17T09:37:08.049Z,604.00
2023-12-17T09:38:12.300Z,606.00
2023-12-17T09:39:08.156Z,606.00
2023-12-17T09:40:08.037Z,606.00
2023-12-17T09:41:08.064Z,605.00
2023-12-17T09:42:08.096Z,607.00
2023-12-17T09:43:08.077Z,608.00
2023-12-17T09:44:08.098Z,607.00
2023-12-17T09:45:08.153Z,610.00
2023-12-17T09:46:08.081Z,610.00
2023-12-17T09:47:08.097Z,611.00
2023-12-17T09:48:08.153Z,611.00
2023-12-17T09:49:08.229Z,610.00
2023-12-17T09:50:08.136Z,615.00
2023-12-17T09:51:08.308Z,613.00
2023-12-17T09:52:08.147Z,606.00
2023-12-17T09:53:08.102Z,611.00
2023-12-17T09:54:08.183Z,604.00
2023-12-17T09:55:08.138Z,612.00
2023-12-17T09:56:08.139Z,613.00
2023-12-17T09:57:08.165Z,606.00
2023-12-17T09:58:08.095Z,610.00
2023-12-17T09:59:08.143Z,611.00
2023-12-17T10:00:08.271Z,611.00
2023-12-17T10:01:08.465Z,612.00
2023-12-17T10:02:08.276Z,608.00
2023-12-17T10:03:08.392Z,607.00
2023-12-17T10:04:08.414Z,612.00
2023-12-17T10:05:08.493Z,617.00
2023-12-17T10:06:08.386Z,613.00
2023-12-17T10:07:08.366Z,606.00
2023-12-17T10:08:08.416Z,614.00
2023-12-17T10:09:08.432Z,609.00
2023-12-17T10:10:08.486Z,610.00
2023-12-17T10:11:08.485Z,619.00
2023-12-17T10:12:08.560Z,603.00
2023-12-17T10:13:08.542Z,612.00
2023-12-17T10:14:08.547Z,615.00
2023-12-17T10:15:08.659Z,614.00
2023-12-17T10:16:08.557Z,621.00
2023-12-17T10:17:08.607Z,613.00
2023-12-17T10:18:08.853Z,623.00
2023-12-17T10:19:08.700Z,615.00
2023-12-17T10:20:08.675Z,621.00
2023-12-17T10:21:08.654Z,627.00
2023-12-17T10:22:08.626Z,610.00
2023-12-17T10:23:08.655Z,616.00
2023-12-17T10:24:08.690Z,619.00
2023-12-17T10:25:08.665Z,611.00
2023-12-17T10:26:08.666Z,616.00
2023-12-17T10:27:08.680Z,619.00
2023-12-17T10:29:12.275Z,600.00
2023-12-17T10:30:12.349Z,600.00
2023-12-17T10:31:12.410Z,600.00
2023-12-17T10:32:12.296Z,600.00
2023-12-17T10:33:12.573Z,600.00
2023-12-17T10:34:12.515Z,600.00
2023-12-17T10:35:12.468Z,604.00
2023-12-17T10:36:12.303Z,607.00
2023-12-17T10:37:12.311Z,608.00
2023-12-17T10:38:12.289Z,606.00
2023-12-17T10:39:12.342Z,604.00
2023-12-17T10:40:12.338Z,601.00
2023-12-17T10:41:12.324Z,607.00
2023-12-17T10:42:12.357Z,605.00
2023-12-17T10:43:12.333Z,611.00
2023-12-17T10:44:12.376Z,609.00
2023-12-17T10:45:12.434Z,605.00
2023-12-17T10:46:12.420Z,608.00
2023-12-17T10:47:12.350Z,607.00
2023-12-17T10:48:12.524Z,618.00
2023-12-17T10:49:12.382Z,612.00
2023-12-17T10:50:12.373Z,606.00
2023-12-17T10:51:12.479Z,609.00
2023-12-17T10:52:12.459Z,612.00
2023-12-17T10:53:12.543Z,614.00
2023-12-17T10:54:12.687Z,612.00
2023-12-17T10:55:12.675Z,612.00
2023-12-17T10:56:12.762Z,609.00
2023-12-17T10:57:12.853Z,613.00
2023-12-17T10:58:12.886Z,615.00
2023-12-17T10:59:15.570Z,611.00
2023-12-17T11:00:13.005Z,611.00
2023-12-17T11:01:12.990Z,611.00
2023-12-17T11:02:12.977Z,611.00
2023-12-17T11:03:13.106Z,608.00
2023-12-17T11:04:13.051Z,613.00
2023-12-17T11:05:13.011Z,610.00
2023-12-17T11:06:13.146Z,609.00
2023-12-17T11:07:16.801Z,608.00
2023-12-17T11:08:14.040Z,608.00
2023-12-17T11:09:13.047Z,609.00
2023-12-17T11:10:12.963Z,608.00
2023-12-17T11:11:12.971Z,607.00
2023-12-17T11:12:13.039Z,606.00
2023-12-17T11:13:12.986Z,609.00
2023-12-17T11:14:13.056Z,608.00
2023-12-17T11:15:13.035Z,608.00
2023-12-17T11:16:13.009Z,606.00
2023-12-17T11:17:13.071Z,606.00
2023-12-17T11:18:13.351Z,608.00
2023-12-17T11:19:13.391Z,610.00
2023-12-17T11:20:13.224Z,609.00
2023-12-17T11:21:13.275Z,610.00
2023-12-17T11:22:13.264Z,607.00
2023-12-17T11:23:13.322Z,611.00
2023-12-17T11:24:13.435Z,609.00
2023-12-17T11:25:13.443Z,609.00
2023-12-17T11:26:13.444Z,611.00
2023-12-17T11:27:13.478Z,609.00
2023-12-17T11:28:13.516Z,613.00
2023-12-17T11:29:13.583Z,613.00
2023-12-17T11:30:13.678Z,607.00
2023-12-17T11:31:13.662Z,609.00
2023-12-17T11:32:13.693Z,612.00
2023-12-17T11:33:13.789Z,611.00
2023-12-17T11:34:13.790Z,610.00
2023-12-17T11:35:13.709Z,611.00
2023-12-17T11:36:13.768Z,610.00
2023-12-17T11:37:13.762Z,609.00
2023-12-17T11:38:13.793Z,614.00
2023-12-17T11:39:13.826Z,608.00
2023-12-17T11:40:13.864Z,613.00
2023-12-17T11:41:13.855Z,609.00
2023-12-17T11:42:13.893Z,610.00
2023-12-17T11:43:13.906Z,613.00
2023-12-17T11:44:13.912Z,611.00
2023-12-17T11:45:13.975Z,610.00
2023-12-17T11:46:13.980Z,612.00
2023-12-17T11:47:14.042Z,611.00
2023-12-17T11:48:14.165Z,613.00
2023-12-17T11:49:14.070Z,614.00
2023-12-17T11:50:14.033Z,613.00
2023-12-17T11:51:47.659Z,600.00
2023-12-17T11:52:47.656Z,600.00
2023-12-17T11:53:47.673Z,600.00
2023-12-17T11:54:47.696Z,600.00
2023-12-17T11:55:47.691Z,600.00
2023-12-17T11:56:47.691Z,604.00
2023-12-17T11:57:47.813Z,604.00
2023-12-17T11:58:47.711Z,602.00
2023-12-17T11:59:47.685Z,602.00
2023-12-17T12:00:47.763Z,603.00
2023-12-17T12:01:47.681Z,602.00
2023-12-17T12:02:47.699Z,602.00
2023-12-17T12:03:47.754Z,607.00
2023-12-17T12:04:47.697Z,607.00
2023-12-17T12:05:47.752Z,603.00
2023-12-17T12:06:47.760Z,609.00
2023-12-17T12:07:47.905Z,604.00
2023-12-17T12:08:47.812Z,605.00
2023-12-17T12:09:47.735Z,610.00
2023-12-17T12:10:47.672Z,605.00
2023-12-17T12:11:47.760Z,606.00
2023-12-17T12:12:47.694Z,601.00
2023-12-17T12:13:47.698Z,606.00
2023-12-17T12:14:47.732Z,604.00
2023-12-17T12:15:47.739Z,601.00
2023-12-17T12:16:47.723Z,605.00
2023-12-17T12:17:48.243Z,603.00
2023-12-17T12:18:47.905Z,603.00
2023-12-17T12:19:47.883Z,606.00
2023-12-17T12:20:47.729Z,609.00
2023-12-17T12:21:47.712Z,606.00
2023-12-17T12:22:49.535Z,610.00
2023-12-17T12:23:47.765Z,604.00
2023-12-17T12:24:47.799Z,603.00
2023-12-17T12:25:47.704Z,609.00
2023-12-17T12:26:47.750Z,606.00
2023-12-17T12:27:47.821Z,608.00
2023-12-17T12:28:47.712Z,604.00
2023-12-17T12:29:47.774Z,605.00
2023-12-17T12:30:47.857Z,606.00